aviador You're here:

KRID Decoded Metar

in
Report Time2018-01-16 19:35:00
UTC Time2018-01-16 19:31:06
Flight Rules vfr VFR
Wind240° at 11 kt
W.Decomp.*RWY 24: 11.0 kt HW 0 kt LCW
RWY 15: 11.0 kt RCW
W.Rank240° ranks 4
Current wind is above 240° avg. (9.5)
Visibility9999 m
Phenomena:N/A
Clouds:N/A
Expected CloudBase > 1,600 ft AGL from Temp-Dew spread
CeilingNone
Temp-15°C
Dew Point-19°C (72% RH)
AAT-22.5°C
QNH1031 hPa
Raw Report
METAR KRID 161935Z AUTO 24011KT 10SM CLR M15/M19 A3044 RMK AO2=

Extra information for KRID:More info

Social comments